Time;durP1;ratioP1;P1;durP2;ratioP2;P2;SDS_P1;SDS_P2;PMS_P1;PMS_P2;Temp;Humidity;BMP_temperature;BMP_pressure;BME280_temperature;BME280_humidity;BME280_pressure;Samples;Min_cycle;Max_cycle;Signal;HPM_P1;HPM_P2
2021/08/02 00:00:15;;;;;;;8.40;6.80;;;;;;;14.93;86.79;100545.09;693969;28;1395;-55
2021/08/02 00:01:04;;;;;;;7.60;6.80;;;;;;;14.93;86.20;100542.47;693424;28;1528;-53
2021/08/02 00:01:30;;;;;;;8.40;7.25;;;;;;;14.95;86.64;100548.59;684912;28;4926;-52
2021/08/02 00:01:57;;;;;;;8.50;7.53;;;;;;;14.95;86.78;100551.22;694924;28;2822;-55
2021/08/02 00:02:26;;;;;;;8.43;7.40;;;;;;;14.93;86.57;100547.75;694389;28;4401;-54
2021/08/02 00:02:50;;;;;;;9.52;7.30;;;;;;;14.91;86.80;100552.19;694021;28;1877;-54
2021/08/02 00:03:25;;;;;;;9.30;7.10;;;;;;;14.91;85.99;100533.78;694325;28;1017;-53
2021/08/02 00:03:59;;;;;;;7.65;6.40;;;;;;;14.94;86.34;100543.38;693149;28;4392;-54
2021/08/02 00:04:24;;;;;;;9.07;6.88;;;;;;;14.93;86.76;100542.47;694741;28;1553;-57
2021/08/02 00:04:52;;;;;;;9.00;6.97;;;;;;;14.91;86.58;100546.03;694488;28;4054;-54
2021/08/02 00:05:14;;;;;;;8.68;7.00;;;;;;;14.88;86.77;100544.34;693877;28;4456;-57
2021/08/02 00:05:35;;;;;;;7.53;6.70;;;;;;;14.88;86.66;100543.50;693798;28;1519;-52
2021/08/02 00:05:58;;;;;;;7.30;6.60;;;;;;;14.87;86.78;100544.38;694103;28;1192;-56
2021/08/02 00:06:24;;;;;;;8.02;7.00;;;;;;;14.85;87.08;100549.69;691640;28;1509;-55
2021/08/02 00:07:00;;;;;;;7.70;6.88;;;;;;;14.86;85.79;100546.16;691717;28;4517;-53
2021/08/02 00:07:23;;;;;;;8.10;6.78;;;;;;;14.89;86.57;100545.22;691550;28;1646;-55
2021/08/02 00:07:51;;;;;;;9.27;7.43;;;;;;;14.95;86.08;100540.69;691040;28;4162;-56
2021/08/02 00:08:18;;;;;;;9.45;7.28;;;;;;;14.95;86.01;100548.59;693303;28;2106;-56
2021/08/02 00:08:39;;;;;;;9.27;7.75;;;;;;;14.92;86.29;100546.00;694572;28;1849;-56
2021/08/02 00:09:07;;;;;;;9.40;7.32;;;;;;;14.90;86.48;100545.19;695255;28;1296;-55
2021/08/02 00:09:32;;;;;;;10.23;7.53;;;;;;;14.89;86.22;100551.34;691731;28;1305;-57
2021/08/02 00:09:54;;;;;;;9.35;7.10;;;;;;;14.90;85.77;100542.56;689997;28;4327;-57
2021/08/02 00:10:16;;;;;;;7.93;6.70;;;;;;;14.92;85.18;100540.75;690546;28;1224;-55
2021/08/02 00:10:36;;;;;;;8.30;6.78;;;;;;;14.93;85.93;100542.47;689868;28;1737;-55
2021/08/02 00:11:00;;;;;;;9.10;7.13;;;;;;;14.94;85.69;100546.00;689841;28;4220;-56
2021/08/02 00:11:20;;;;;;;8.90;7.07;;;;;;;14.93;86.03;100537.22;691186;28;1910;-56
2021/08/02 00:11:54;;;;;;;9.75;7.55;;;;;;;14.88;86.58;100544.34;692788;28;1242;-56
2021/08/02 00:12:17;;;;;;;9.30;8.32;;;;;;;14.86;86.45;100540.91;691452;28;1775;-59
2021/08/02 00:13:09;;;;;;;9.02;7.80;;;;;;;14.87;85.52;100542.66;691956;28;1368;-57
2021/08/02 00:13:32;;;;;;;8.35;7.38;;;;;;;14.92;85.77;100546.00;681802;28;6407;-55
2021/08/02 00:13:53;;;;;;;8.57;7.22;;;;;;;14.89;86.76;100546.09;687235;28;1685;-56
2021/08/02 00:14:14;;;;;;;8.77;7.53;;;;;;;14.89;86.82;100546.09;690988;28;1520;-56
2021/08/02 00:14:35;;;;;;;8.30;7.47;;;;;;;14.89;86.58;100542.59;690954;28;1385;-57
2021/08/02 00:14:58;;;;;;;7.97;7.18;;;;;;;14.89;86.19;100540.81;691956;28;1421;-55
2021/08/02 00:15:20;;;;;;;8.25;6.97;;;;;;;14.91;85.34;100546.03;693283;28;1115;-57
2021/08/02 00:15:41;;;;;;;9.13;7.15;;;;;;;14.91;86.49;100539.03;693965;28;1559;-57
2021/08/02 00:16:07;;;;;;;8.15;7.35;;;;;;;14.92;86.18;100546.00;693512;28;4924;-55
2021/08/02 00:16:27;;;;;;;7.57;6.78;;;;;;;14.93;85.94;100539.84;693309;28;4044;-52
2021/08/02 00:16:48;;;;;;;8.60;7.25;;;;;;;15.13;86.40;100543.75;694402;28;1557;-55
2021/08/02 00:17:10;;;;;;;8.43;6.93;;;;;;;15.13;84.85;100549.00;694735;28;1166;-54
2021/08/02 00:17:31;;;;;;;9.40;6.60;;;;;;;15.11;86.18;100535.88;694756;28;1625;-57
2021/08/02 00:17:52;;;;;;;7.95;6.80;;;;;;;15.08;86.39;100543.00;692160;28;1566;-54
2021/08/02 00:18:13;;;;;;;9.23;7.20;;;;;;;15.13;86.05;100543.75;690603;28;1465;-56
2021/08/02 00:18:34;;;;;;;9.02;7.03;;;;;;;15.11;84.92;100537.66;691676;28;1370;-53
2021/08/02 00:18:55;;;;;;;7.50;6.63;;;;;;;15.12;85.82;100539.41;688161;28;4605;-56
2021/08/02 00:19:16;;;;;;;8.37;7.47;;;;;;;15.08;85.98;100540.38;689409;28;4620;-55
2021/08/02 00:19:36;;;;;;;9.18;7.65;;;;;;;15.04;86.46;100546.63;689664;28;1411;-52
2021/08/02 00:19:56;;;;;;;9.23;7.60;;;;;;;15.02;86.20;100543.16;691990;28;1390;-57
2021/08/02 00:20:21;;;;;;;8.90;7.50;;;;;;;15.01;86.14;100538.78;692607;28;1283;-56
2021/08/02 00:20:42;;;;;;;8.82;7.93;;;;;;;14.98;86.40;100540.59;692077;28;1510;-56
2021/08/02 00:21:05;;;;;;;8.68;7.78;;;;;;;14.95;86.45;100540.69;691652;28;1075;-56
2021/08/02 00:21:26;;;;;;;9.57;7.85;;;;;;;14.92;86.69;100543.38;691720;28;1555;-57
2021/08/02 00:21:47;;;;;;;10.00;7.88;;;;;;;14.91;87.08;100540.78;690963;28;4521;-52
2021/08/02 00:22:07;;;;;;;9.33;8.27;;;;;;;14.90;86.82;100545.19;692984;28;1791;-55
2021/08/02 00:22:27;;;;;;;9.73;8.03;;;;;;;14.90;86.73;100542.56;694365;28;3790;-56
2021/08/02 00:22:48;;;;;;;8.97;7.70;;;;;;;14.90;86.75;100542.56;694049;28;1159;-57
2021/08/02 00:23:10;;;;;;;9.93;7.78;;;;;;;14.91;86.36;100543.41;695138;28;1495;-54
2021/08/02 00:23:31;;;;;;;10.00;7.57;;;;;;;14.92;85.92;100543.38;694040;28;1491;-54
2021/08/02 00:23:51;;;;;;;9.15;7.55;;;;;;;14.95;86.98;100538.06;694768;28;1610;-55
2021/08/02 00:24:13;;;;;;;8.52;7.45;;;;;;;14.95;86.71;100543.31;694489;28;1752;-57
2021/08/02 00:24:33;;;;;;;9.32;6.95;;;;;;;14.96;85.83;100538.91;694170;28;2817;-56
2021/08/02 00:24:54;;;;;;;8.80;6.87;;;;;;;14.97;85.21;100544.13;690261;28;4436;-56
2021/08/02 00:25:16;;;;;;;8.48;7.57;;;;;;;14.96;87.03;100541.53;690252;28;3059;-56
2021/08/02 00:25:37;;;;;;;9.80;8.27;;;;;;;14.89;87.25;100540.81;690775;28;958;-55
2021/08/02 00:26:00;;;;;;;9.85;8.35;;;;;;;14.86;87.96;100540.91;688540;28;1039;-56
2021/08/02 00:26:22;;;;;;;10.20;8.63;;;;;;;14.83;87.77;100543.63;688791;28;1406;-57
2021/08/02 00:26:43;;;;;;;9.50;8.50;;;;;;;14.83;87.11;100543.63;690350;28;1342;-57
2021/08/02 00:27:04;;;;;;;9.73;8.00;;;;;;;14.85;87.44;100541.81;692156;28;1345;-57
2021/08/02 00:27:25;;;;;;;9.73;8.57;;;;;;;14.85;88.06;100546.22;688150;28;1043;-53
2021/08/02 00:27:45;;;;;;;9.32;8.25;;;;;;;14.84;88.07;100540.06;688637;28;4355;-57
2021/08/02 00:28:06;;;;;;;9.40;8.00;;;;;;;14.82;88.47;100539.25;690797;28;3921;-56
2021/08/02 00:28:30;;;;;;;9.32;8.30;;;;;;;14.81;88.38;100541.03;690954;28;1498;-56
2021/08/02 00:28:51;;;;;;;9.95;8.90;;;;;;;14.78;88.16;100543.72;692604;28;1666;-55
2021/08/02 00:29:14;;;;;;;10.63;9.10;;;;;;;14.79;88.35;100544.59;690458;28;1480;-57
2021/08/02 00:29:35;;;;;;;9.98;8.90;;;;;;;14.78;88.54;100542.84;688879;28;1450;-53
2021/08/02 00:29:56;;;;;;;9.52;8.52;;;;;;;14.77;88.37;100541.13;689949;28;3655;-53
2021/08/02 00:30:16;;;;;;;9.50;8.50;;;;;;;14.78;88.29;100542.84;688553;28;4182;-56
2021/08/02 00:30:37;;;;;;;9.60;8.60;;;;;;;14.76;88.68;100544.66;688765;28;1847;-56
2021/08/02 00:30:58;;;;;;;9.73;8.73;;;;;;;14.75;87.89;100541.16;689576;28;4794;-56
2021/08/02 00:31:19;;;;;;;9.40;8.40;;;;;;;14.76;88.01;100540.25;692665;28;1981;-54
2021/08/02 00:31:40;;;;;;;10.35;9.05;;;;;;;14.81;88.95;100534.88;693336;28;1477;-55
2021/08/02 00:32:02;;;;;;;10.18;9.05;;;;;;;14.82;89.01;100539.25;691215;28;1574;-55
2021/08/02 00:32:22;;;;;;;9.75;8.50;;;;;;;14.80;88.88;100535.78;690029;28;1511;-55
2021/08/02 00:32:42;;;;;;;9.57;8.47;;;;;;;14.79;89.10;100545.44;688268;28;1371;-56
2021/08/02 00:33:03;;;;;;;9.82;8.80;;;;;;;14.77;89.00;100541.13;688219;28;3501;-57
2021/08/02 00:33:23;;;;;;;9.70;8.70;;;;;;;14.76;88.81;100536.75;688068;28;4651;-57
2021/08/02 00:33:44;;;;;;;9.40;8.43;;;;;;;14.75;89.12;100537.69;686648;28;4346;-58
2021/08/02 00:34:04;;;;;;;10.20;8.73;;;;;;;14.73;88.91;100540.34;689851;28;1550;-55
2021/08/02 00:34:25;;;;;;;10.32;8.40;;;;;;;14.72;88.63;100545.66;689225;28;1622;-56
2021/08/02 00:34:46;;;;;;;9.70;8.05;;;;;;;14.71;88.69;100543.91;691799;28;1612;-56
2021/08/02 00:35:07;;;;;;;9.00;7.50;;;;;;;14.72;87.55;100545.66;692275;28;1540;-55
2021/08/02 00:35:36;;;;;;;7.85;6.80;;;;;;;14.76;87.17;100544.66;693117;28;1433;-56
2021/08/02 00:36:06;;;;;;;10.50;7.85;;;;;;;14.78;87.87;100545.50;694395;28;4049;-57
2021/08/02 00:36:34;;;;;;;8.43;7.32;;;;;;;14.80;86.40;100546.31;693350;28;1651;-56
2021/08/02 00:37:04;;;;;;;8.57;7.45;;;;;;;14.82;87.53;100545.38;693852;28;4571;-57
2021/08/02 00:37:40;;;;;;;9.82;8.32;;;;;;;14.83;88.24;100548.88;692039;28;1564;-55
2021/08/02 00:38:07;;;;;;;10.40;8.25;;;;;;;14.82;88.46;100550.63;692551;28;1065;-57
2021/08/02 00:38:43;;;;;;;9.57;8.15;;;;;;;14.82;88.45;100547.16;692123;28;1478;-57
2021/08/02 00:39:15;;;;;;;9.55;8.55;;;;;;;14.80;89.00;100546.31;691438;28;1572;-57
2021/08/02 00:39:54;;;;;;;9.20;8.30;;;;;;;14.80;88.31;100549.81;692610;28;4316;-56
2021/08/02 00:40:47;;;;;;;9.82;8.55;;;;;;;14.78;89.30;100550.75;690562;28;6175;-56
2021/08/02 00:42:05;;;;;;;10.50;9.38;;;;;;;14.70;88.93;100557.97;684307;28;1675;-56
2021/08/02 00:42:29;;;;;;;10.20;8.90;;;;;;;14.68;89.23;100546.63;683605;28;1460;-57
2021/08/02 00:43:27;;;;;;;10.88;9.27;;;;;;;14.62;89.47;100548.50;682394;28;4562;-53
2021/08/02 00:44:02;;;;;;;10.65;9.55;;;;;;;14.58;89.81;100557.31;682683;28;1623;-56
2021/08/02 00:44:37;;;;;;;10.98;9.23;;;;;;;14.58;89.99;100551.16;681730;28;3057;-55
2021/08/02 00:45:03;;;;;;;10.32;9.25;;;;;;;14.59;89.44;100552.91;684974;28;1430;-56
2021/08/02 00:45:33;;;;;;;10.57;9.45;;;;;;;14.60;89.64;100547.63;687134;28;1386;-54
2021/08/02 00:45:53;;;;;;;11.40;9.38;;;;;;;14.62;89.09;100552.84;689503;28;4403;-56
2021/08/02 00:46:15;;;;;;;10.38;9.10;;;;;;;14.62;90.02;100556.38;691443;28;1313;-56
2021/08/02 00:46:42;;;;;;;10.38;9.27;;;;;;;14.62;90.09;100552.84;694820;28;1354;-56
2021/08/02 00:47:10;;;;;;;10.75;9.65;;;;;;;14.61;90.23;100551.97;694100;28;1819;-56
2021/08/02 00:47:45;;;;;;;11.82;9.65;;;;;;;14.63;90.37;100555.50;693614;28;1838;-55
2021/08/02 00:48:11;;;;;;;10.32;9.20;;;;;;;14.62;90.27;100555.47;694821;28;1633;-55
2021/08/02 00:48:53;;;;;;;10.68;8.93;;;;;;;14.62;89.02;100558.09;695215;28;1742;-56
2021/08/02 00:49:22;;;;;;;10.80;8.88;;;;;;;14.61;90.66;100549.34;693794;28;5047;-56
2021/08/02 00:49:50;;;;;;;10.45;9.35;;;;;;;14.60;90.64;100555.50;691887;28;1413;-57
2021/08/02 00:50:21;;;;;;;10.90;9.80;;;;;;;14.65;90.55;100550.19;692008;28;3658;-56
2021/08/02 00:50:48;;;;;;;11.43;9.48;;;;;;;14.70;89.96;100545.66;690800;28;2339;-57
2021/08/02 00:51:10;;;;;;;11.50;9.95;;;;;;;14.69;90.58;100551.84;693412;28;1977;-55
2021/08/02 00:51:36;;;;;;;11.05;9.68;;;;;;;14.68;90.70;100549.25;693461;28;1244;-57
2021/08/02 00:51:58;;;;;;;11.32;9.50;;;;;;;14.66;90.55;100554.53;691567;28;4680;-55
2021/08/02 00:52:22;;;;;;;11.07;9.98;;;;;;;14.63;90.62;100547.59;689802;28;1566;-59
2021/08/02 00:52:48;;;;;;;10.90;9.80;;;;;;;14.62;90.56;100552.84;687082;28;1414;-54
2021/08/02 00:53:15;;;;;;;11.27;9.77;;;;;;;14.61;90.32;100546.72;686079;28;1269;-52
2021/08/02 00:53:38;;;;;;;12.20;10.07;;;;;;;14.68;90.49;100557.16;688163;28;1307;-57
2021/08/02 00:54:00;;;;;;;12.32;9.98;;;;;;;14.68;90.37;100557.16;687757;28;1365;-53
2021/08/02 00:54:25;;;;;;;11.43;10.23;;;;;;;14.67;90.46;100550.16;688683;28;1485;-57
2021/08/02 00:54:48;;;;;;;11.25;9.73;;;;;;;14.68;89.82;100549.25;690409;28;4338;-57
2021/08/02 00:55:11;;;;;;;11.65;9.43;;;;;;;14.68;90.06;100555.38;690116;28;1189;-56
2021/08/02 00:55:37;;;;;;;11.38;9.70;;;;;;;14.68;90.42;100554.53;689707;28;1370;-56
2021/08/02 00:56:01;;;;;;;12.77;9.70;;;;;;;14.65;90.43;100552.81;689374;28;3663;-56
2021/08/02 00:56:23;;;;;;;10.52;9.32;;;;;;;14.66;89.83;100551.03;688985;28;1662;-54
2021/08/02 00:56:46;;;;;;;9.65;8.57;;;;;;;14.68;89.26;100549.25;689573;28;1167;-56
2021/08/02 00:57:10;;;;;;;10.70;9.60;;;;;;;14.69;90.01;100553.59;686637;28;1378;-54
2021/08/02 00:57:36;;;;;;;11.10;9.93;;;;;;;14.67;90.59;100555.41;688062;28;1480;-56
2021/08/02 00:58:01;;;;;;;10.43;9.32;;;;;;;14.67;90.12;100550.16;689172;28;4427;-55
2021/08/02 00:58:25;;;;;;;11.15;9.95;;;;;;;14.67;90.40;100555.41;691904;28;1228;-53
2021/08/02 00:58:47;;;;;;;11.38;9.85;;;;;;;14.67;90.27;100550.16;691255;28;4182;-55
2021/08/02 00:59:11;;;;;;;10.68;9.57;;;;;;;14.68;89.75;100555.38;691955;28;1239;-54
2021/08/02 00:59:32;;;;;;;11.73;10.15;;;;;;;14.69;90.08;100553.59;692168;28;1354;-55
2021/08/02 00:59:57;;;;;;;12.32;10.60;;;;;;;14.68;89.71;100549.25;693933;28;1111;-56
2021/08/02 01:00:19;;;;;;;12.95;10.30;;;;;;;14.67;89.60;100550.16;692359;28;1286;-55
2021/08/02 01:00:46;;;;;;;11.00;9.90;;;;;;;14.69;89.91;100549.22;687826;28;4368;-57
2021/08/02 01:01:07;;;;;;;11.15;10.05;;;;;;;14.69;89.30;100548.31;688830;28;1596;-55
2021/08/02 01:01:28;;;;;;;11.25;10.15;;;;;;;14.69;89.85;100548.31;689275;28;3545;-56
2021/08/02 01:01:49;;;;;;;11.05;9.95;;;;;;;14.68;90.03;100546.63;688297;28;2109;-57
2021/08/02 01:02:11;;;;;;;11.00;9.90;;;;;;;14.66;90.05;100545.78;690559;28;1497;-57
2021/08/02 01:02:38;;;;;;;11.27;10.10;;;;;;;14.64;90.22;100549.31;692639;28;1602;-57
2021/08/02 01:03:04;;;;;;;11.25;10.05;;;;;;;14.64;90.01;100554.56;692868;28;1296;-54
2021/08/02 01:03:30;;;;;;;10.50;9.27;;;;;;;14.64;89.61;100551.09;690920;28;1532;-52
2021/08/02 01:03:55;;;;;;;11.95;9.60;;;;;;;14.66;90.06;100553.66;689543;28;4708;-56
2021/08/02 01:04:18;;;;;;;11.15;9.57;;;;;;;14.62;90.44;100551.13;691976;28;1770;-56
2021/08/02 01:04:40;;;;;;;11.90;9.80;;;;;;;14.61;90.61;100551.97;691535;28;3310;-57
2021/08/02 01:05:03;;;;;;;12.05;9.65;;;;;;;14.62;90.27;100553.75;690664;28;1395;-57
2021/08/02 01:05:24;;;;;;;11.25;9.90;;;;;;;14.66;90.38;100553.66;693226;28;1636;-55
2021/08/02 01:05:51;;;;;;;11.18;9.70;;;;;;;14.64;90.48;100554.56;693879;28;1415;-57
2021/08/02 01:06:15;;;;;;;12.82;10.68;;;;;;;14.61;90.59;100551.97;690391;28;1581;-52
2021/08/02 01:06:39;;;;;;;12.20;10.90;;;;;;;14.60;90.54;100552.88;690642;28;1407;-56
2021/08/02 01:07:02;;;;;;;11.68;10.10;;;;;;;14.62;90.38;100556.38;690592;28;4439;-52
2021/08/02 01:07:24;;;;;;;10.95;9.75;;;;;;;14.66;90.38;100553.66;689740;28;3889;-57
2021/08/02 01:07:51;;;;;;;11.55;10.27;;;;;;;14.66;90.20;100553.66;686971;28;1437;-56
2021/08/02 01:08:19;;;;;;;11.00;9.77;;;;;;;14.68;90.02;100547.47;687921;28;1743;-56
2021/08/02 01:08:40;;;;;;;11.32;9.90;;;;;;;14.67;89.78;100550.16;689292;28;1533;-55
2021/08/02 01:09:05;;;;;;;12.95;9.52;;;;;;;14.67;89.53;100547.53;685883;28;1243;-56
2021/08/02 01:09:27;;;;;;;10.82;9.38;;;;;;;14.66;89.33;100549.25;687266;28;1707;-55
2021/08/02 01:09:50;;;;;;;10.30;9.20;;;;;;;14.66;88.90;100548.41;687976;28;4466;-55
2021/08/02 01:10:12;;;;;;;10.30;9.15;;;;;;;14.67;89.31;100550.16;689362;28;4163;-54
2021/08/02 01:10:35;;;;;;;11.48;9.50;;;;;;;14.66;89.52;100553.66;688333;28;1327;-56
2021/08/02 01:11:02;;;;;;;11.38;9.93;;;;;;;14.65;90.14;100547.56;692139;28;1307;-53
2021/08/02 01:11:27;;;;;;;11.32;10.05;;;;;;;14.62;90.29;100553.75;692228;28;1914;-53
2021/08/02 01:11:51;;;;;;;11.32;9.77;;;;;;;14.63;89.13;100557.22;691543;28;1577;-57
2021/08/02 01:12:13;;;;;;;10.07;8.38;;;;;;;14.66;88.14;100556.31;689714;28;2306;-54
2021/08/02 01:12:36;;;;;;;10.50;8.18;;;;;;;14.70;88.52;100557.97;685837;28;1345;-54
2021/08/02 01:13:00;;;;;;;9.20;8.30;;;;;;;14.72;87.46;100553.53;685667;28;4521;-57
2021/08/02 01:13:23;;;;;;;9.50;8.13;;;;;;;14.73;87.49;100556.13;687974;28;1743;-54
2021/08/02 01:13:44;;;;;;;9.73;8.57;;;;;;;14.75;88.57;100556.09;687004;28;1257;-54
2021/08/02 01:14:08;;;;;;;10.50;8.93;;;;;;;14.74;89.29;100557.84;685428;28;1831;-55
2021/08/02 01:14:29;;;;;;;10.95;9.50;;;;;;;14.72;89.35;100558.81;686011;28;1538;-55
2021/08/02 01:14:54;;;;;;;10.75;9.00;;;;;;;14.72;89.01;100557.03;684510;28;1493;-55
2021/08/02 01:15:16;;;;;;;11.00;9.85;;;;;;;14.72;89.94;100556.19;684425;28;1457;-57
2021/08/02 01:15:37;;;;;;;11.52;9.98;;;;;;;14.68;90.24;100554.53;685236;28;3871;-57
2021/08/02 01:16:00;;;;;;;10.70;9.60;;;;;;;14.64;90.77;100554.56;688186;28;4473;-54
2021/08/02 01:16:22;;;;;;;10.98;9.57;;;;;;;14.61;90.89;100557.25;687931;28;4078;-56
2021/08/02 01:16:44;;;;;;;11.20;8.90;;;;;;;14.60;90.05;100555.50;689907;28;1433;-55
2021/08/02 01:17:10;;;;;;;10.10;8.15;;;;;;;14.62;89.71;100559.00;691009;28;1813;-56
2021/08/02 01:17:33;;;;;;;9.50;8.27;;;;;;;14.64;89.89;100551.94;692347;28;1516;-56
2021/08/02 01:17:56;;;;;;;11.25;9.02;;;;;;;14.62;90.44;100552.84;689766;28;1648;-55
2021/08/02 01:18:23;;;;;;;12.10;9.32;;;;;;;14.59;91.21;100551.16;688538;28;1525;-52
2021/08/02 01:18:48;;;;;;;10.45;9.35;;;;;;;14.57;90.90;100546.84;690478;28;4596;-54
2021/08/02 01:19:10;;;;;;;10.65;9.55;;;;;;;14.58;90.31;100548.53;689948;28;3954;-55
2021/08/02 01:19:34;;;;;;;11.07;9.75;;;;;;;14.59;90.04;100552.91;690160;28;1396;-56
2021/08/02 01:19:57;;;;;;;10.40;9.30;;;;;;;14.60;89.42;100552.88;690103;28;1640;-57
2021/08/02 01:20:20;;;;;;;10.15;8.90;;;;;;;14.61;90.80;100551.97;691427;28;1435;-56
2021/08/02 01:20:46;;;;;;;11.52;9.95;;;;;;;14.56;91.04;100553.00;692331;28;1634;-55
2021/08/02 01:21:11;;;;;;;11.55;9.75;;;;;;;14.52;90.97;100546.91;693133;28;1596;-54
2021/08/02 01:21:36;;;;;;;10.68;9.55;;;;;;;14.52;89.98;100551.31;693500;28;1387;-54
2021/08/02 01:21:59;;;;;;;10.05;9.05;;;;;;;14.55;89.55;100553.88;692474;28;4559;-56
2021/08/02 01:22:28;;;;;;;10.52;8.75;;;;;;;14.59;88.83;100553.78;693626;28;1750;-55
2021/08/02 01:22:49;;;;;;;10.15;8.23;;;;;;;14.61;88.53;100546.72;694062;28;1675;-56
2021/08/02 01:23:11;;;;;;;9.95;8.85;;;;;;;14.58;89.73;100549.44;694675;28;1840;-57
2021/08/02 01:23:36;;;;;;;11.55;9.85;;;;;;;14.55;89.77;100552.13;693540;28;1398;-54
2021/08/02 01:23:57;;;;;;;10.75;9.20;;;;;;;14.56;89.41;100545.09;691861;28;1662;-53
2021/08/02 01:24:20;;;;;;;10.15;9.13;;;;;;;14.57;89.53;100550.31;688718;28;1321;-56
2021/08/02 01:24:43;;;;;;;10.30;9.27;;;;;;;14.58;89.71;100556.44;688092;28;4640;-54
2021/08/02 01:25:38;;;;;;;11.25;10.05;;;;;;;14.58;89.06;100551.16;689617;28;1665;-55
2021/08/02 01:26:03;;;;;;;9.65;8.65;;;;;;;14.62;88.50;100548.50;692261;28;1559;-52
2021/08/02 01:26:44;;;;;;;10.38;9.38;;;;;;;14.64;89.98;100551.09;694887;28;1703;-55
2021/08/02 01:27:09;;;;;;;12.55;9.90;;;;;;;14.59;90.89;100548.53;691996;28;3827;-55
2021/08/02 01:28:04;;;;;;;10.97;9.87;;;;;;;14.54;90.65;100553.03;692766;28;1669;-56
2021/08/02 01:28:24;;;;;;;10.65;9.55;;;;;;;14.54;89.75;100545.13;690999;28;5229;-56
2021/08/02 01:29:23;;;;;;;10.85;9.25;;;;;;;14.55;90.22;100546.00;692110;28;1484;-56
2021/08/02 01:30:17;;;;;;;12.18;10.38;;;;;;;14.48;90.76;100545.25;692131;28;3741;-56
2021/08/02 01:30:37;;;;;;;10.52;9.43;;;;;;;14.46;90.13;100544.44;691426;28;1962;-56
2021/08/02 01:31:03;;;;;;;11.17;9.97;;;;;;;14.46;90.97;100547.06;693554;28;4442;-57
2021/08/02 01:31:28;;;;;;;11.68;9.80;;;;;;;14.44;90.76;100547.13;696121;28;1981;-56
2021/08/02 01:31:48;;;;;;;11.40;9.90;;;;;;;14.44;90.52;100554.13;693480;28;1527;-56
2021/08/02 01:32:18;;;;;;;11.52;9.35;;;;;;;14.46;89.56;100541.81;691946;28;1224;-57
2021/08/02 01:32:40;;;;;;;9.30;8.20;;;;;;;14.52;88.49;100546.91;689049;28;4155;-57
2021/08/02 01:33:01;;;;;;;9.90;7.97;;;;;;;14.57;88.21;100545.06;686905;28;3217;-57
2021/08/02 01:33:36;;;;;;;10.43;8.53;;;;;;;14.59;88.41;100548.53;687782;28;1259;-59
2021/08/02 01:34:04;;;;;;;9.45;8.27;;;;;;;14.63;87.29;100544.97;686510;28;5172;-56
2021/08/02 01:34:24;;;;;;;10.13;8.80;;;;;;;14.64;88.52;100549.31;684991;28;1936;-56
2021/08/02 01:34:45;;;;;;;10.10;8.68;;;;;;;14.65;87.43;100547.56;684609;28;1596;-55
2021/08/02 01:35:06;;;;;;;10.18;8.85;;;;;;;14.67;86.82;100547.53;687513;28;1522;-56
2021/08/02 01:35:28;;;;;;;10.68;9.43;;;;;;;14.69;87.25;100550.97;689865;28;1634;-55
2021/08/02 01:35:49;;;;;;;10.60;9.43;;;;;;;14.71;86.94;100546.53;689621;28;1681;-56
2021/08/02 01:36:10;;;;;;;9.82;8.77;;;;;;;14.72;87.45;100553.53;688347;28;2859;-57
2021/08/02 01:36:40;;;;;;;10.35;9.27;;;;;;;14.73;88.66;100545.63;691067;28;1432;-55
2021/08/02 01:37:01;;;;;;;10.63;9.53;;;;;;;14.72;88.84;100548.28;689512;28;4739;-55
2021/08/02 01:37:22;;;;;;;10.60;9.50;;;;;;;14.69;89.36;100561.47;687149;28;1498;-53
2021/08/02 01:37:43;;;;;;;10.63;9.52;;;;;;;14.67;89.33;100550.16;687887;28;1921;-56
2021/08/02 01:38:05;;;;;;;11.50;9.45;;;;;;;14.65;88.97;100558.09;690898;28;978;-56
2021/08/02 01:38:27;;;;;;;13.00;10.10;;;;;;;14.63;89.64;100552.84;688837;28;3756;-56
2021/08/02 01:38:49;;;;;;;11.77;10.57;;;;;;;14.63;89.45;100550.22;690493;28;1494;-52
2021/08/02 01:39:12;;;;;;;11.57;10.35;;;;;;;14.62;89.12;100553.75;693241;28;1608;-56
2021/08/02 01:39:34;;;;;;;11.88;10.45;;;;;;;14.62;88.82;100552.84;691031;28;1495;-56
2021/08/02 01:39:56;;;;;;;10.82;9.38;;;;;;;14.62;88.84;100548.50;689820;28;4597;-55
2021/08/02 01:40:18;;;;;;;10.80;9.70;;;;;;;14.64;89.12;100556.34;688218;28;1628;-55
2021/08/02 01:40:40;;;;;;;11.37;10.17;;;;;;;14.61;90.02;100549.34;689105;28;1189;-55
2021/08/02 01:41:03;;;;;;;11.63;10.43;;;;;;;14.60;90.37;100554.66;689003;28;3748;-56
2021/08/02 01:41:26;;;;;;;11.77;10.57;;;;;;;14.57;90.63;100555.59;688473;28;4068;-57
2021/08/02 01:41:47;;;;;;;11.75;10.52;;;;;;;14.56;90.89;100548.59;688172;28;1646;-57
2021/08/02 01:42:09;;;;;;;12.32;10.05;;;;;;;14.55;90.95;100556.50;687829;28;1898;-57
2021/08/02 01:42:29;;;;;;;10.77;9.50;;;;;;;14.54;89.71;100558.28;687244;28;1535;-55
2021/08/02 01:42:51;;;;;;;9.70;8.70;;;;;;;14.57;88.83;100554.72;684031;28;4463;-56
2021/08/02 01:43:16;;;;;;;10.45;9.25;;;;;;;14.58;90.78;100561.69;685505;28;1337;-56
2021/08/02 01:43:38;;;;;;;10.82;9.73;;;;;;;14.55;90.82;100564.41;685907;28;1481;-56
2021/08/02 01:43:59;;;;;;;11.32;10.02;;;;;;;14.52;90.43;100562.69;688236;28;3284;-56
2021/08/02 01:44:20;;;;;;;11.65;9.93;;;;;;;14.53;89.54;100555.69;689572;28;1777;-57
2021/08/02 01:44:41;;;;;;;11.10;9.45;;;;;;;14.54;90.60;100562.66;687060;28;4152;-57
2021/08/02 01:45:03;;;;;;;11.98;10.30;;;;;;;14.51;91.19;100560.13;687224;28;1326;-57
2021/08/02 01:45:24;;;;;;;11.38;10.18;;;;;;;14.47;91.44;100554.06;686979;28;1812;-56
2021/08/02 01:45:55;;;;;;;11.23;10.02;;;;;;;14.46;91.47;100561.09;684110;28;4667;-57
2021/08/02 01:46:47;;;;;;;11.00;9.90;;;;;;;14.46;90.98;100562.84;680942;28;1372;-57
2021/08/02 01:47:18;;;;;;;14.32;10.25;;;;;;;14.45;91.42;100561.13;681496;28;1732;-56
2021/08/02 01:47:58;;;;;;;12.32;11.02;;;;;;;14.42;91.30;100561.19;683358;28;2432;-55
2021/08/02 01:48:57;;;;;;;11.63;10.43;;;;;;;14.39;92.03;100556.88;689701;28;2210;-55
2021/08/02 01:49:24;;;;;;;12.63;11.20;;;;;;;14.34;92.20;100555.25;688949;28;5001;-53
2021/08/02 01:49:54;;;;;;;12.40;11.05;;;;;;;14.32;92.34;100555.28;686736;28;4490;-55
2021/08/02 01:50:35;;;;;;;13.00;11.13;;;;;;;14.33;91.87;100561.38;686990;28;1841;-54
2021/08/02 01:51:07;;;;;;;13.13;11.02;;;;;;;14.29;92.31;100556.19;687459;28;1743;-55
2021/08/02 01:51:45;;;;;;;13.23;11.10;;;;;;;14.26;92.32;100556.28;689307;28;2005;-56
2021/08/02 01:52:17;;;;;;;12.48;11.02;;;;;;;14.27;92.11;100557.13;687008;28;5119;-56
2021/08/02 01:52:49;;;;;;;13.15;11.48;;;;;;;14.26;92.34;100552.75;686943;28;4306;-54
2021/08/02 01:53:19;;;;;;;12.68;11.07;;;;;;;14.24;91.49;100555.44;688666;28;1874;-55
2021/08/02 01:53:51;;;;;;;12.10;10.80;;;;;;;14.28;91.30;100558.88;689531;28;1118;-55
2021/08/02 01:54:28;;;;;;;12.27;10.77;;;;;;;14.34;91.53;100563.13;694633;28;1398;-55
2021/08/02 01:55:19;;;;;;;11.15;9.93;;;;;;;14.37;90.14;100558.69;692044;28;4337;-53
2021/08/02 01:55:44;;;;;;;11.45;9.63;;;;;;;14.42;90.12;100561.19;692758;28;1797;-56
2021/08/02 01:56:34;;;;;;;10.82;9.73;;;;;;;14.43;89.94;100560.31;694144;28;3820;-55
2021/08/02 01:57:26;;;;;;;12.57;10.70;;;;;;;14.50;90.51;100564.53;691979;28;1797;-54
2021/08/02 01:58:10;;;;;;;11.57;10.38;;;;;;;14.48;90.06;100561.03;693643;28;5168;-57
2021/08/02 01:59:06;;;;;;;11.63;10.18;;;;;;;14.48;89.93;100561.03;689451;28;1643;-60
2021/08/02 01:59:35;;;;;;;11.60;10.15;;;;;;;14.48;90.05;100559.31;694879;28;1585;-56
2021/08/02 02:00:08;;;;;;;11.63;10.13;;;;;;;14.47;90.09;100562.81;693870;28;1417;-57
2021/08/02 02:00:43;;;;;;;11.05;9.90;;;;;;;14.46;90.56;100554.97;693488;28;1059;-55
2021/08/02 02:01:06;;;;;;;12.20;10.18;;;;;;;14.46;90.71;100562.84;691494;28;4961;-53
2021/08/02 02:01:28;;;;;;;11.38;10.02;;;;;;;14.45;90.94;100554.13;689762;28;1255;-56
2021/08/02 02:02:02;;;;;;;11.25;10.07;;;;;;;14.43;90.65;100553.28;689733;28;1484;-56
2021/08/02 02:02:26;;;;;;;10.20;9.10;;;;;;;14.46;90.05;100560.22;687272;28;1568;-56
2021/08/02 02:03:03;;;;;;;11.25;10.13;;;;;;;14.42;91.16;100561.19;682280;28;1603;-57
2021/08/02 02:03:35;;;;;;;11.30;9.68;;;;;;;14.42;91.16;100563.81;684223;28;1720;-55